createdAt,value
2019-01-10T21:02:43.112Z,4.30
2019-01-10T21:03:43.007Z,4.50
2019-01-10T21:04:43.027Z,5.50
2019-01-10T21:05:43.097Z,5.20
2019-01-10T21:06:43.041Z,5.50
2019-01-10T21:07:43.887Z,5.70
2019-01-10T21:08:43.046Z,11.10
2019-01-10T21:09:42.940Z,27.20
2019-01-10T21:10:42.929Z,16.80
2019-01-10T21:11:43.727Z,18.50
2019-01-10T21:12:43.731Z,8.20
2019-01-10T21:13:43.339Z,5.20
2019-01-10T21:14:42.878Z,5.10
2019-01-10T21:15:42.941Z,4.70
2019-01-10T21:16:43.833Z,5.00
2019-01-10T21:17:43.725Z,5.10
2019-01-10T21:18:42.918Z,5.50
2019-01-10T21:19:42.836Z,4.90
2019-01-10T21:20:43.817Z,4.80
2019-01-10T21:21:43.795Z,4.10
2019-01-10T21:22:42.803Z,7.20
2019-01-10T21:23:42.794Z,6.40
2019-01-10T21:24:42.784Z,6.90
2019-01-10T21:25:42.768Z,7.10
2019-01-10T21:26:43.790Z,7.20
2019-01-10T21:27:46.735Z,6.10
2019-01-10T21:28:43.716Z,6.90
2019-01-10T21:29:42.731Z,5.60
2019-01-10T21:30:42.732Z,5.10
2019-01-10T21:31:43.983Z,5.60
2019-01-10T21:32:42.699Z,4.90
2019-01-10T21:33:42.690Z,4.70
2019-01-10T21:34:43.232Z,4.70
2019-01-10T21:35:43.237Z,5.10
2019-01-10T21:36:42.665Z,4.70
2019-01-10T21:37:42.662Z,5.00
2019-01-10T21:38:42.631Z,5.00
2019-01-10T21:39:42.663Z,4.50
2019-01-10T21:40:42.606Z,4.50
2019-01-10T21:41:42.596Z,4.30
2019-01-10T21:42:42.599Z,4.40
2019-01-10T21:43:42.588Z,3.50
2019-01-10T21:44:42.574Z,4.90
2019-01-10T21:45:42.564Z,4.40
2019-01-10T21:46:44.244Z,4.50
2019-01-10T21:47:43.527Z,5.90
2019-01-10T21:48:43.520Z,5.70
2019-01-10T21:49:43.263Z,5.70
2019-01-10T21:50:42.528Z,4.50
2019-01-10T21:51:42.495Z,5.10
2019-01-10T21:52:43.237Z,5.90
2019-01-10T21:53:42.496Z,5.70
2019-01-10T21:54:42.463Z,4.90
2019-01-10T21:55:42.463Z,5.50
2019-01-10T21:56:42.437Z,4.70
2019-01-10T21:57:42.455Z,4.50
2019-01-10T21:58:42.415Z,4.10
2019-01-10T21:59:42.411Z,4.70
2019-01-10T22:00:43.414Z,4.30
2019-01-10T22:01:42.396Z,3.70
2019-01-10T22:02:42.407Z,4.70
2019-01-10T22:03:42.356Z,4.50
2019-01-10T22:04:42.357Z,6.00
2019-01-10T22:05:42.341Z,4.40
2019-01-10T22:06:42.340Z,4.80
2019-01-10T22:07:42.313Z,4.80
2019-01-10T22:08:43.267Z,5.10
2019-01-10T22:09:43.229Z,5.60
2019-01-10T22:10:42.289Z,8.70
2019-01-10T22:11:42.293Z,8.20
2019-01-10T22:12:42.269Z,6.70
2019-01-10T22:13:42.252Z,7.90
2019-01-10T22:14:43.249Z,6.10
2019-01-10T22:15:43.258Z,5.00
2019-01-10T22:16:42.238Z,4.80
2019-01-10T22:17:42.258Z,4.90
2019-01-10T22:18:42.203Z,4.00
2019-01-10T22:19:42.731Z,6.80
2019-01-10T22:20:42.183Z,4.80
2019-01-10T22:21:43.223Z,4.30
2019-01-10T22:22:42.726Z,5.50
2019-01-10T22:23:42.161Z,6.60
2019-01-10T22:24:42.730Z,7.20
2019-01-10T22:25:42.126Z,8.70
2019-01-10T22:26:42.111Z,6.50
2019-01-10T22:27:42.721Z,8.90
2019-01-10T22:28:42.119Z,6.60
2019-01-10T22:29:42.078Z,8.70
2019-01-10T22:30:42.728Z,5.50
2019-01-10T22:31:42.069Z,5.90
2019-01-10T22:32:42.048Z,5.80
2019-01-10T22:33:42.079Z,4.70
2019-01-10T22:34:43.766Z,4.20
2019-01-10T22:35:42.021Z,4.50
2019-01-10T22:36:43.761Z,4.90
2019-01-10T22:37:42.728Z,5.00
2019-01-10T22:38:42.032Z,6.40
2019-01-10T22:39:44.219Z,4.70
2019-01-10T22:40:45.723Z,4.70
2019-01-10T22:41:42.742Z,6.80
2019-01-10T22:42:41.940Z,6.20
2019-01-10T22:43:41.945Z,4.90
2019-01-10T22:44:41.920Z,4.70
2019-01-10T22:45:43.758Z,7.30
2019-01-10T22:46:41.913Z,6.10
2019-01-10T22:47:41.889Z,5.40
2019-01-10T22:48:47.848Z,5.20
2019-01-10T22:49:42.864Z,5.90
2019-01-10T22:50:41.894Z,4.90
2019-01-10T22:51:41.863Z,5.10
2019-01-10T22:52:42.683Z,4.90
2019-01-10T22:53:43.690Z,5.40
2019-01-10T22:54:41.817Z,4.40
2019-01-10T22:55:41.832Z,4.70
2019-01-10T22:56:41.789Z,4.80
2019-01-10T22:57:41.781Z,5.00
2019-01-10T22:58:41.771Z,4.40
2019-01-10T22:59:41.761Z,4.00
2019-01-10T23:00:41.754Z,3.80
2019-01-10T23:01:41.813Z,4.60
2019-01-10T23:02:43.727Z,4.70
2019-01-10T23:03:42.708Z,4.40
2019-01-10T23:04:41.706Z,4.70
2019-01-10T23:05:41.696Z,5.20
2019-01-10T23:06:41.683Z,4.50
2019-01-10T23:07:41.694Z,5.00
2019-01-10T23:08:41.662Z,4.50
2019-01-10T23:09:41.653Z,4.20
2019-01-10T23:10:41.645Z,4.40
2019-01-10T23:11:42.229Z,5.20
2019-01-10T23:12:41.629Z,4.80
2019-01-10T23:13:41.627Z,4.70
2019-01-10T23:14:41.601Z,4.80
2019-01-10T23:15:41.585Z,3.80
2019-01-10T23:16:41.607Z,5.10
2019-01-10T23:17:41.576Z,6.80
2019-01-10T23:18:45.240Z,6.60
2019-01-10T23:19:41.549Z,5.20
2019-01-10T23:20:41.527Z,4.20
2019-01-10T23:21:43.248Z,4.00
2019-01-10T23:22:44.238Z,4.00
2019-01-10T23:23:41.506Z,3.80
2019-01-10T23:24:41.519Z,3.90
2019-01-10T23:25:41.483Z,3.80
2019-01-10T23:26:41.484Z,3.60
2019-01-10T23:27:41.506Z,4.10
2019-01-10T23:28:41.468Z,3.60
2019-01-10T23:29:41.436Z,4.20
2019-01-10T23:30:41.438Z,4.50
2019-01-10T23:31:41.419Z,30.80
2019-01-10T23:32:41.406Z,40.70
2019-01-10T23:33:41.391Z,29.40
2019-01-10T23:34:41.402Z,33.10
2019-01-10T23:35:41.376Z,10.20
2019-01-10T23:36:41.366Z,9.90
2019-01-10T23:37:41.373Z,9.30
2019-01-10T23:38:42.232Z,9.90
2019-01-10T23:39:42.344Z,7.40
2019-01-10T23:40:41.343Z,5.50
2019-01-10T23:41:41.312Z,7.10
2019-01-10T23:42:41.295Z,7.00
2019-01-10T23:43:41.311Z,7.80
2019-01-10T23:44:41.314Z,7.10
2019-01-10T23:45:41.305Z,6.70
2019-01-10T23:46:42.230Z,6.30
2019-01-10T23:47:42.259Z,6.30
2019-01-10T23:48:41.268Z,5.20
2019-01-10T23:49:42.208Z,5.40
2019-01-10T23:50:42.778Z,4.50
2019-01-10T23:51:41.221Z,4.90
2019-01-10T23:52:41.200Z,4.70
2019-01-10T23:53:41.188Z,5.20
2019-01-10T23:54:41.176Z,4.50
2019-01-10T23:55:41.159Z,4.80
2019-01-10T23:56:41.149Z,5.40
2019-01-10T23:57:41.150Z,4.90
2019-01-10T23:58:42.168Z,5.90
2019-01-10T23:59:41.120Z,5.60
